Accueil
METAR-TAF:

METAR-TAF

Aéroports :

Aéroport de Southampton

Southampton, Angleterre

latitude: 50-54N, longitude: 001-24W, altitude: 9 m

Observation

Le bulletin a été fait il y a 6 heures et 11 minutes, à 21:20 UTC
Vent 3 kt de direction variable
Température 15°C
Humidité 88%
Pression 1023 hPa
Visibilité 10 km ou plus
Quelques nuages à une hauteur de 3400 ft

METAR: EGHI 192120Z VRB03KT 9999 FEW034 15/13 Q1023

Heure: 04:31 (03:31 UTC)

Prévision

Le bulletin a été fait il y a 10 heures et 30 minutes, à 17:01 UTC
Prévision valable du 19 à 18 UTC au 19 à 22 UTC
Vent 7 kt de sud-ouest
Visibilité 10 km ou plus
Nuages épars à une hauteur de 2500 ft
Temporairement
du 19 à 19 UTC au 19 à 22 UTC
Nuages fragmentés à une hauteur de 1000 ft

TAF: EGHI 191701Z 1918/1922 23007KT 9999 SCT025 TEMPO 1919/1922 BKN010

Observations et prévisions météorologiques de plus de 4000 aéroports (messages METAR et TAF).

Les stations disponibles sont représentées par des disques jaunes et rouges sur la carte.

Passer la souris dessus pour voir le nom de la station.

Cliquer dessus pour voir les observations et prévisions météorologiques.

Pour changer de carte: cliquez sur les boutons verts avec une croix noire pour zoomer, sur le bouton vert avec un tiret pour effectuer un zoom arrière, ou sur les flèches vertes pour les cartes adjacentes.


METAR-TAF: